createdAt,value
2022-08-18T00:03:01.385Z,4.91
2022-08-18T00:08:04.017Z,6.88
2022-08-18T00:13:11.259Z,2.49
2022-08-18T00:18:18.367Z,5.10
2022-08-18T00:23:25.556Z,3.35
2022-08-18T00:28:32.749Z,6.10
2022-08-18T00:33:40.092Z,5.03
2022-08-18T00:38:47.217Z,3.53
2022-08-18T00:43:54.608Z,4.76
2022-08-18T00:49:01.801Z,4.01
2022-08-18T00:54:09.091Z,6.15
2022-08-18T00:59:16.297Z,3.16
2022-08-18T01:04:23.591Z,3.54
2022-08-18T01:09:30.850Z,2.88
2022-08-18T01:14:38.047Z,4.83
2022-08-18T01:19:45.234Z,3.36
2022-08-18T01:24:52.577Z,3.05
2022-08-18T01:29:59.761Z,3.21
2022-08-18T01:35:07.025Z,3.11
2022-08-18T01:41:17.456Z,1.75
2022-08-18T01:45:20.997Z,4.60
2022-08-18T01:50:28.123Z,2.71
2022-08-18T01:55:35.383Z,3.41
2022-08-18T02:00:42.534Z,3.39
2022-08-18T02:05:49.878Z,2.38
2022-08-18T02:10:56.978Z,3.86
2022-08-18T02:16:04.377Z,3.89
2022-08-18T02:21:12.508Z,2.83
2022-08-18T02:26:19.779Z,2.64
2022-08-18T02:31:26.993Z,3.14
2022-08-18T02:36:34.162Z,3.13
2022-08-18T02:41:41.154Z,3.63
2022-08-18T02:46:48.369Z,2.64
2022-08-18T02:51:55.457Z,3.76
2022-08-18T02:57:02.457Z,5.08
2022-08-18T03:02:09.811Z,4.57
2022-08-18T03:07:16.794Z,3.04
2022-08-18T03:12:23.952Z,4.06
2022-08-18T03:17:31.008Z,2.56
2022-08-18T03:22:38.139Z,6.31
2022-08-18T03:27:44.730Z,3.82
2022-08-18T03:32:51.821Z,5.60
2022-08-18T03:37:58.897Z,4.51
2022-08-18T03:43:06.087Z,3.87
2022-08-18T03:48:12.635Z,6.73
2022-08-18T03:53:19.720Z,3.37
2022-08-18T03:58:26.797Z,5.20
2022-08-18T04:03:33.815Z,4.80
2022-08-18T04:08:40.801Z,5.24
2022-08-18T04:13:47.893Z,3.49
2022-08-18T04:18:54.967Z,5.89
2022-08-18T04:24:02.030Z,5.91
2022-08-18T04:29:09.130Z,4.03
2022-08-18T04:34:16.154Z,5.02
2022-08-18T04:39:23.110Z,5.87
2022-08-18T04:44:30.134Z,5.09
2022-08-18T04:49:37.151Z,5.36
2022-08-18T04:54:44.382Z,5.55
2022-08-18T04:59:51.366Z,4.38
2022-08-18T05:04:58.462Z,5.77
2022-08-18T05:10:05.434Z,8.37
2022-08-18T05:15:15.095Z,6.35
2022-08-18T05:20:22.092Z,5.63
2022-08-18T05:25:29.335Z,5.60
2022-08-18T05:30:43.034Z,7.90
2022-08-18T05:35:39.379Z,6.12
2022-08-18T05:40:46.463Z,6.17
2022-08-18T05:45:53.758Z,4.46
2022-08-18T05:51:00.781Z,6.70
2022-08-18T05:56:08.122Z,4.81
2022-08-18T06:01:15.135Z,6.49
2022-08-18T06:06:22.211Z,5.72
2022-08-18T06:11:29.555Z,4.47
2022-08-18T06:16:36.754Z,6.12
2022-08-18T06:21:43.911Z,7.50
2022-08-18T06:26:52.410Z,4.99
2022-08-18T06:31:59.479Z,6.94
2022-08-18T06:37:06.626Z,4.87
2022-08-18T06:42:13.619Z,9.67
2022-08-18T06:47:20.897Z,7.59
2022-08-18T06:52:28.072Z,6.36
2022-08-18T06:57:35.357Z,5.42
2022-08-18T07:02:42.332Z,6.01
2022-08-18T07:07:49.572Z,4.81
2022-08-18T07:12:56.844Z,6.48
2022-08-18T07:18:04.497Z,5.04
2022-08-18T07:23:11.519Z,4.03
2022-08-18T07:28:18.526Z,5.37
2022-08-18T07:33:26.497Z,5.49
2022-08-18T07:38:43.003Z,6.40
2022-08-18T07:43:40.315Z,6.11
2022-08-18T07:48:47.520Z,5.10
2022-08-18T07:53:56.612Z,8.00
2022-08-18T07:59:01.268Z,6.39
2022-08-18T08:04:08.321Z,5.27
2022-08-18T08:09:16.884Z,9.52
2022-08-18T08:14:26.582Z,8.21
2022-08-18T08:19:58.433Z,8.73
2022-08-18T08:24:37.835Z,7.44
2022-08-18T08:29:45.584Z,10.04
2022-08-18T08:34:52.589Z,9.31
2022-08-18T08:39:59.776Z,11.15
2022-08-18T08:45:06.751Z,9.83
2022-08-18T08:50:17.277Z,9.87
2022-08-18T08:55:14.337Z,12.29
2022-08-18T09:00:21.406Z,9.31
2022-08-18T09:05:28.411Z,7.85
2022-08-18T09:10:35.648Z,7.66
2022-08-18T09:15:42.645Z,5.80
2022-08-18T09:20:49.754Z,7.38
2022-08-18T09:25:56.773Z,8.43
2022-08-18T09:31:03.777Z,9.13
2022-08-18T09:36:10.564Z,13.18
2022-08-18T09:41:17.549Z,6.39
2022-08-18T09:46:24.531Z,8.24
2022-08-18T09:51:31.067Z,6.09
2022-08-18T09:56:38.102Z,9.46
2022-08-18T10:01:52.621Z,6.43
2022-08-18T10:06:51.736Z,14.42
2022-08-18T10:11:57.835Z,8.48
2022-08-18T10:17:23.375Z,8.66
2022-08-18T10:22:11.655Z,7.08
2022-08-18T10:27:18.330Z,7.98
2022-08-18T10:32:25.345Z,9.53
2022-08-18T10:37:32.029Z,8.48
2022-08-18T10:42:39.088Z,8.13
2022-08-18T10:47:47.206Z,8.75
2022-08-18T10:53:23.867Z,8.48
2022-08-18T10:57:59.548Z,7.79
2022-08-18T11:03:42.795Z,8.82
2022-08-18T11:08:16.091Z,9.25
2022-08-18T11:13:19.886Z,10.14
2022-08-18T11:18:26.451Z,8.47
2022-08-18T11:23:33.450Z,6.53
2022-08-18T11:28:45.008Z,7.89
2022-08-18T11:33:46.572Z,8.92
2022-08-18T11:38:53.306Z,8.84
2022-08-18T11:44:00.365Z,8.78
2022-08-18T11:49:07.717Z,7.39
2022-08-18T11:54:14.252Z,7.49
2022-08-18T11:59:20.925Z,8.60
2022-08-18T12:04:29.063Z,8.32
2022-08-18T12:10:15.866Z,6.07
2022-08-18T12:14:40.853Z,6.89
2022-08-18T12:19:47.589Z,6.98
2022-08-18T12:24:54.194Z,9.03
2022-08-18T12:30:01.500Z,9.21
2022-08-18T12:35:09.417Z,9.22
2022-08-18T12:40:15.251Z,7.26
2022-08-18T12:45:22.197Z,7.59
2022-08-18T12:50:31.076Z,8.28
2022-08-18T12:55:36.009Z,9.20
2022-08-18T13:00:42.804Z,8.51
2022-08-18T13:05:49.736Z,7.54
2022-08-18T13:10:58.343Z,8.00
2022-08-18T13:16:03.562Z,11.10
2022-08-18T13:21:09.683Z,6.47
2022-08-18T13:26:16.679Z,7.75
2022-08-18T13:31:23.866Z,7.83
2022-08-18T13:36:30.925Z,7.67
2022-08-18T13:41:38.152Z,10.64
2022-08-18T13:46:44.735Z,11.64
2022-08-18T13:51:51.880Z,9.86
2022-08-18T13:56:58.905Z,7.89
2022-08-18T14:02:08.644Z,8.42
2022-08-18T14:07:13.543Z,6.51
2022-08-18T14:12:22.624Z,7.20
2022-08-18T14:17:25.710Z,8.32
2022-08-18T14:22:32.870Z,8.89
2022-08-18T14:27:39.388Z,11.41
2022-08-18T14:32:49.176Z,8.57
2022-08-18T14:37:53.377Z,7.55
2022-08-18T14:42:59.845Z,10.27
2022-08-18T14:48:06.570Z,10.17
2022-08-18T14:53:13.050Z,9.09
2022-08-18T14:58:20.752Z,8.12
2022-08-18T15:03:30.964Z,10.09
2022-08-18T15:08:34.286Z,8.19
2022-08-18T15:13:40.924Z,9.92
2022-08-18T15:18:47.957Z,11.01
2022-08-18T15:23:58.290Z,7.85
2022-08-18T15:29:01.524Z,9.63
2022-08-18T15:34:08.150Z,8.55
2022-08-18T15:39:14.817Z,11.47
2022-08-18T15:44:21.970Z,9.94
2022-08-18T15:49:29.081Z,8.15
2022-08-18T15:54:35.645Z,9.19
2022-08-18T15:59:42.697Z,8.46
2022-08-18T16:04:49.362Z,9.03
2022-08-18T16:09:55.952Z,12.09
2022-08-18T16:15:03.148Z,10.55
2022-08-18T16:20:10.113Z,8.77
2022-08-18T16:25:17.283Z,7.82
2022-08-18T16:30:24.400Z,7.74
2022-08-18T16:35:31.697Z,7.91
2022-08-18T16:40:38.731Z,8.86
2022-08-18T16:45:45.795Z,6.61
2022-08-18T16:50:57.133Z,6.48
2022-08-18T16:55:54.425Z,9.84
2022-08-18T17:01:04.431Z,7.06
2022-08-18T17:06:02.630Z,8.14
2022-08-18T17:11:09.837Z,8.97
2022-08-18T17:16:18.735Z,7.67
2022-08-18T17:21:28.458Z,8.74
2022-08-18T17:26:35.865Z,9.14
2022-08-18T17:31:43.134Z,9.26
2022-08-18T17:36:52.872Z,9.97
2022-08-18T17:41:56.906Z,10.07
2022-08-18T17:47:04.020Z,8.04
2022-08-18T17:52:12.870Z,9.33
2022-08-18T17:57:19.884Z,9.01
2022-08-18T18:02:29.747Z,9.70
2022-08-18T18:07:33.670Z,8.53
2022-08-18T18:12:40.822Z,9.04
2022-08-18T18:17:47.877Z,9.35
2022-08-18T18:22:55.060Z,11.19
2022-08-18T18:28:02.136Z,8.98
2022-08-18T18:33:09.259Z,6.99
2022-08-18T18:38:16.348Z,8.84
2022-08-18T18:43:23.426Z,9.10
2022-08-18T18:48:51.730Z,9.20
2022-08-18T18:53:37.174Z,8.24
2022-08-18T18:58:44.156Z,11.90
2022-08-18T19:03:51.286Z,11.21
2022-08-18T19:08:58.237Z,9.29
2022-08-18T19:14:07.469Z,11.90
2022-08-18T19:19:37.051Z,8.89
2022-08-18T19:24:19.034Z,11.39
2022-08-18T19:29:26.072Z,10.13
2022-08-18T19:34:33.154Z,10.09
2022-08-18T19:39:40.160Z,10.83
2022-08-18T19:45:00.315Z,11.49
2022-08-18T19:49:53.728Z,10.69
2022-08-18T19:55:00.885Z,11.54
2022-08-18T20:00:07.877Z,10.06
2022-08-18T20:05:14.979Z,11.74
2022-08-18T20:10:21.949Z,11.61
2022-08-18T20:15:29.090Z,10.41
2022-08-18T20:20:36.125Z,13.39
2022-08-18T20:25:43.250Z,11.62
2022-08-18T20:30:50.266Z,13.92
2022-08-18T20:35:57.267Z,12.81
2022-08-18T20:41:04.365Z,14.15
2022-08-18T20:46:11.371Z,10.83
2022-08-18T20:51:18.439Z,11.46
2022-08-18T20:56:32.325Z,12.62
2022-08-18T21:01:32.074Z,14.52
2022-08-18T21:06:39.072Z,10.01
2022-08-18T21:11:46.284Z,11.11
2022-08-18T21:16:53.323Z,7.71
2022-08-18T21:22:00.595Z,13.95
2022-08-18T21:27:07.886Z,10.86
2022-08-18T21:32:15.606Z,9.06
2022-08-18T21:37:22.694Z,9.25
2022-08-18T21:42:31.167Z,10.36
2022-08-18T21:47:38.197Z,9.49
2022-08-18T21:52:45.405Z,10.42
2022-08-18T21:57:52.423Z,11.38
2022-08-18T22:02:59.560Z,10.99
2022-08-18T22:08:06.741Z,10.41
2022-08-18T22:13:13.886Z,9.02
2022-08-18T22:18:23.402Z,9.69
2022-08-18T22:23:32.169Z,9.89
2022-08-18T22:28:39.927Z,10.39
2022-08-18T22:33:46.950Z,10.53
2022-08-18T22:38:53.988Z,10.75
2022-08-18T22:44:01.125Z,9.73
2022-08-18T22:49:08.114Z,12.10
2022-08-18T22:54:15.387Z,10.11
2022-08-18T22:59:22.422Z,12.83
2022-08-18T23:04:29.586Z,14.94
2022-08-18T23:09:36.554Z,13.86
2022-08-18T23:14:43.555Z,11.40
2022-08-18T23:19:52.168Z,12.57
2022-08-18T23:24:57.175Z,13.74
2022-08-18T23:30:04.349Z,11.82
2022-08-18T23:35:11.333Z,12.32
2022-08-18T23:40:18.352Z,11.92
2022-08-18T23:45:25.367Z,14.74
2022-08-18T23:50:32.360Z,12.92
2022-08-18T23:55:39.497Z,14.32
